Time;durP1;ratioP1;P1;durP2;ratioP2;P2;SDS_P1;SDS_P2;PMS_P1;PMS_P2;Temp;Humidity;BMP_temperature;BMP_pressure;BME280_temperature;BME280_humidity;BME280_pressure;Samples;Min_cycle;Max_cycle;Signal;HPM_P1;HPM_P2
2022/01/06 00:00:35;;;;;;;15.52;1.90;;;5.90;99.90;;;;;;4964415;28;20101;-84
2022/01/06 00:03:02;;;;;;;12.65;1.65;;;6.50;99.90;;;;;;4960722;28;20104;-84
2022/01/06 00:05:27;;;;;;;13.00;1.65;;;5.20;99.90;;;;;;4984926;28;20038;-83
2022/01/06 00:07:53;;;;;;;15.75;2.42;;;5.30;99.90;;;;;;4979685;28;20117;-84
2022/01/06 00:10:20;;;;;;;10.05;1.60;;;5.90;99.90;;;;;;4993513;28;20765;-84
2022/01/06 00:15:37;;;;;;;16.13;3.20;;;6.10;99.90;;;;;;4983690;28;20061;-85
2022/01/06 00:25:44;;;;;;;14.70;2.08;;;5.20;99.90;;;;;;5001245;28;20034;-83
2022/01/06 00:28:09;;;;;;;20.85;2.80;;;4.70;99.90;;;;;;4997821;28;20037;-84
2022/01/06 00:30:35;;;;;;;17.05;3.05;;;4.70;99.90;;;;;;4982915;28;20490;-83
2022/01/06 00:33:00;;;;;;;17.15;2.50;;;4.70;99.90;;;;;;4980182;28;20466;-84
2022/01/06 00:35:26;;;;;;;24.40;3.08;;;4.70;99.90;;;;;;4965289;28;20050;-84
2022/01/06 00:37:52;;;;;;;17.05;2.55;;;4.70;99.90;;;;;;4995900;28;20754;-84
2022/01/06 00:40:17;;;;;;;22.30;3.33;;;4.70;99.90;;;;;;4998741;28;20096;-83
2022/01/06 00:42:43;;;;;;;27.52;3.15;;;5.40;99.90;;;;;;4977907;28;20582;-84
2022/01/06 00:45:09;;;;;;;29.15;3.92;;;5.80;99.90;;;;;;4981307;28;20105;-83
2022/01/06 00:47:35;;;;;;;30.38;3.28;;;5.70;99.90;;;;;;4977229;28;20035;-84
2022/01/06 00:50:00;;;;;;;24.38;2.83;;;4.80;99.90;;;;;;4969187;28;20042;-84
2022/01/06 00:52:26;;;;;;;15.65;2.35;;;5.10;99.90;;;;;;4996994;28;20034;-84
2022/01/06 00:54:52;;;;;;;22.08;3.63;;;5.70;99.90;;;;;;4986648;28;20046;-84
2022/01/06 00:57:17;;;;;;;20.70;2.60;;;4.70;99.90;;;;;;5000427;28;20040;-83
2022/01/06 00:59:43;;;;;;;29.40;2.67;;;5.00;99.90;;;;;;4980635;28;20385;-84
2022/01/06 01:02:09;;;;;;;29.00;3.00;;;4.60;99.90;;;;;;4996992;28;20355;-84
2022/01/06 01:04:34;;;;;;;22.52;3.00;;;5.60;99.90;;;;;;4999318;28;20045;-84
2022/01/06 01:07:00;;;;;;;18.95;2.58;;;4.70;99.90;;;;;;5001707;28;20129;-85
2022/01/06 01:09:26;;;;;;;24.10;2.65;;;5.20;99.90;;;;;;4979474;28;20358;-84
2022/01/06 01:11:53;;;;;;;28.60;2.58;;;5.60;99.90;;;;;;5001999;28;20057;-84
2022/01/06 01:14:27;;;;;;;23.40;2.92;;;5.60;99.90;;;;;;4977732;28;20046;-83
2022/01/06 01:16:56;;;;;;;33.60;4.20;;;5.60;99.90;;;;;;4960526;28;20073;-83
2022/01/06 01:19:22;;;;;;;28.10;3.40;;;4.60;99.90;;;;;;5001658;28;20096;-84
2022/01/06 01:21:48;;;;;;;18.30;2.10;;;4.70;99.90;;;;;;4979276;28;20046;-83
2022/01/06 01:24:14;;;;;;;20.80;2.45;;;5.50;99.90;;;;;;4979567;28;20042;-83
2022/01/06 01:26:40;;;;;;;12.02;1.70;;;5.40;99.90;;;;;;5000500;28;20841;-84
2022/01/06 01:29:13;;;;;;;16.55;1.73;;;5.40;99.90;;;;;;4978979;28;20189;-84
2022/01/06 01:31:44;;;;;;;13.63;1.80;;;4.70;99.90;;;;;;4968038;28;20038;-84
2022/01/06 01:34:10;;;;;;;15.65;2.38;;;5.60;99.90;;;;;;4966988;28;20077;-84
2022/01/06 01:36:36;;;;;;;23.95;2.70;;;5.70;99.90;;;;;;4970907;28;20088;-83
2022/01/06 01:39:03;;;;;;;17.90;2.50;;;5.80;99.90;;;;;;4981334;28;20077;-83
2022/01/06 01:41:29;;;;;;;20.70;2.50;;;5.40;99.90;;;;;;4975553;28;20042;-84
2022/01/06 01:43:55;;;;;;;15.73;2.75;;;5.70;99.90;;;;;;4981817;28;20572;-84
2022/01/06 01:46:28;;;;;;;19.52;2.58;;;4.70;99.90;;;;;;4977746;28;20076;-83
2022/01/06 01:49:15;;;;;;;27.80;3.00;;;5.00;99.90;;;;;;4967649;28;20481;-83
2022/01/06 01:51:41;;;;;;;24.35;2.95;;;4.60;99.90;;;;;;4995332;28;20041;-84
2022/01/06 01:54:07;;;;;;;27.60;2.83;;;3.90;99.90;;;;;;4998510;28;20034;-83
2022/01/06 01:56:33;;;;;;;27.10;2.58;;;4.50;99.90;;;;;;4972365;28;20134;-84
2022/01/06 01:58:59;;;;;;;19.63;3.13;;;4.50;99.90;;;;;;4993985;28;20042;-84
2022/01/06 02:01:25;;;;;;;22.35;2.50;;;5.40;99.90;;;;;;4986308;28;20910;-84
2022/01/06 02:03:50;;;;;;;21.42;2.70;;;4.90;99.90;;;;;;4978915;28;20581;-83
2022/01/06 02:06:16;;;;;;;31.83;3.53;;;5.50;99.90;;;;;;4977779;28;20043;-84
2022/01/06 02:08:42;;;;;;;25.88;3.17;;;5.50;99.90;;;;;;4976690;28;20050;-84
2022/01/06 02:11:07;;;;;;;25.25;2.90;;;4.90;99.90;;;;;;4995415;28;20166;-83
2022/01/06 02:13:43;;;;;;;25.73;3.53;;;4.20;99.90;;;;;;4987815;28;20478;-83
2022/01/06 02:16:09;;;;;;;35.20;3.67;;;4.50;99.90;;;;;;4995282;28;20031;-83
2022/01/06 02:18:34;;;;;;;26.08;3.70;;;4.70;99.90;;;;;;4980588;28;20108;-84
2022/01/06 02:21:00;;;;;;;18.17;2.95;;;4.10;99.90;;;;;;4984996;28;20081;-84
2022/01/06 02:23:26;;;;;;;17.10;2.47;;;5.20;99.90;;;;;;5001177;28;20065;-84
2022/01/06 02:25:51;;;;;;;21.83;3.67;;;4.40;99.90;;;;;;4988495;28;20500;-84
2022/01/06 02:28:22;;;;;;;26.75;2.88;;;4.20;99.90;;;;;;4979691;28;20098;-83
2022/01/06 02:30:51;;;;;;;29.48;3.40;;;4.30;99.90;;;;;;4996596;28;20061;-84
2022/01/06 02:33:17;;;;;;;24.73;3.13;;;4.30;99.90;;;;;;4967973;28;20331;-83
2022/01/06 02:35:43;;;;;;;19.88;2.60;;;5.20;99.90;;;;;;4970291;28;20397;-83
2022/01/06 02:38:10;;;;;;;28.08;3.63;;;4.30;99.90;;;;;;4979179;28;20046;-84
2022/01/06 02:40:35;;;;;;;28.92;3.15;;;5.00;99.90;;;;;;4977174;28;20046;-83
2022/01/06 02:43:05;;;;;;;17.80;2.92;;;4.30;99.90;;;;;;4995119;28;20038;-84
2022/01/06 02:45:31;;;;;;;19.75;3.28;;;4.30;99.90;;;;;;4995755;28;20046;-83
2022/01/06 02:47:57;;;;;;;24.50;3.00;;;4.80;99.90;;;;;;4979724;28;20046;-83
2022/01/06 02:50:24;;;;;;;21.05;2.58;;;4.20;99.90;;;;;;4997307;28;20056;-83
2022/01/06 02:52:50;;;;;;;17.17;2.90;;;4.10;99.90;;;;;;4985613;28;20057;-83
2022/01/06 02:55:16;;;;;;;24.63;3.10;;;4.00;99.90;;;;;;4979930;28;20042;-83
2022/01/06 02:57:44;;;;;;;22.23;3.20;;;4.40;99.90;;;;;;4997489;28;20074;-84
2022/01/06 03:00:13;;;;;;;28.70;3.35;;;4.40;99.90;;;;;;4962052;28;20049;-83
2022/01/06 03:02:42;;;;;;;22.90;3.15;;;3.80;99.90;;;;;;4971018;28;20466;-84
2022/01/06 03:05:09;;;;;;;22.23;2.80;;;4.40;99.90;;;;;;4999925;28;20104;-83
2022/01/06 03:07:34;;;;;;;26.27;3.17;;;4.90;99.90;;;;;;4969418;28;20422;-84
2022/01/06 03:10:03;;;;;;;23.15;2.35;;;3.70;99.90;;;;;;4986803;28;20113;-83
2022/01/06 03:12:34;;;;;;;22.65;3.33;;;3.70;99.90;;;;;;4986690;28;20045;-84
2022/01/06 03:15:00;;;;;;;19.83;2.75;;;3.60;99.90;;;;;;4999473;28;20445;-84
2022/01/06 03:17:26;;;;;;;30.58;3.58;;;3.80;99.90;;;;;;4984077;28;20388;-84
2022/01/06 03:19:52;;;;;;;22.13;3.00;;;3.60;99.90;;;;;;4983483;28;20141;-84
2022/01/06 03:22:17;;;;;;;27.45;3.17;;;4.60;99.90;;;;;;5003414;28;20038;-84
2022/01/06 03:24:43;;;;;;;23.88;3.10;;;4.70;99.90;;;;;;4987560;28;20098;-84
2022/01/06 03:27:09;;;;;;;23.05;2.67;;;4.60;99.90;;;;;;4984653;28;20045;-84
2022/01/06 03:29:35;;;;;;;21.73;2.45;;;3.50;99.90;;;;;;4973642;28;20046;-84
2022/01/06 03:32:00;;;;;;;23.45;2.92;;;4.00;99.90;;;;;;4980738;28;20148;-84
2022/01/06 03:34:30;;;;;;;20.83;3.20;;;3.50;99.90;;;;;;4999936;28;20030;-84
2022/01/06 03:36:57;;;;;;;23.25;3.08;;;3.40;99.90;;;;;;5003217;28;20044;-83
2022/01/06 03:39:23;;;;;;;28.83;2.63;;;4.00;99.90;;;;;;4970773;28;20156;-83
2022/01/06 03:41:48;;;;;;;25.55;3.45;;;3.40;99.90;;;;;;4983042;28;20447;-84
2022/01/06 03:44:14;;;;;;;25.27;2.92;;;4.40;99.90;;;;;;4994754;28;20121;-84
2022/01/06 03:46:40;;;;;;;18.15;2.50;;;3.30;99.90;;;;;;4980571;28;20057;-84
2022/01/06 03:49:05;;;;;;;25.80;3.13;;;4.40;99.90;;;;;;4996359;28;20037;-83
2022/01/06 03:51:31;;;;;;;18.13;2.50;;;3.90;99.90;;;;;;4975965;28;20050;-84
2022/01/06 03:53:57;;;;;;;25.20;3.00;;;3.30;99.90;;;;;;4989436;28;20486;-83
2022/01/06 03:56:22;;;;;;;23.98;2.75;;;4.20;99.90;;;;;;5002112;28;20034;-83
2022/01/06 03:58:49;;;;;;;25.48;2.88;;;4.30;99.90;;;;;;4972204;28;20030;-83
2022/01/06 04:01:16;;;;;;;26.02;2.80;;;3.40;99.90;;;;;;4969373;28;20216;-83
2022/01/06 04:03:44;;;;;;;27.02;3.55;;;4.30;99.90;;;;;;4980389;28;20038;-83
2022/01/06 04:06:10;;;;;;;31.17;3.85;;;4.40;99.90;;;;;;4998629;28;20038;-83
2022/01/06 04:08:36;;;;;;;32.92;3.13;;;3.40;99.90;;;;;;5006238;28;20037;-84
2022/01/06 04:11:02;;;;;;;33.22;3.60;;;3.30;99.90;;;;;;4980832;28;20089;-83
2022/01/06 04:13:29;;;;;;;22.33;3.10;;;4.20;99.90;;;;;;4993103;28;20069;-83
2022/01/06 04:15:55;;;;;;;38.92;3.70;;;4.40;99.90;;;;;;4993222;28;20362;-83
2022/01/06 04:18:20;;;;;;;26.15;3.55;;;3.50;99.90;;;;;;4996860;28;20054;-83
2022/01/06 04:20:46;;;;;;;30.65;3.03;;;4.50;99.90;;;;;;4966981;28;20450;-83
2022/01/06 04:23:12;;;;;;;27.42;2.88;;;4.20;99.90;;;;;;5001846;28;20090;-83
2022/01/06 04:25:37;;;;;;;39.10;3.60;;;4.00;99.90;;;;;;4966589;28;20040;-83
2022/01/06 04:28:03;;;;;;;25.40;3.70;;;4.00;99.90;;;;;;5002358;28;20169;-84
2022/01/06 04:30:29;;;;;;;27.70;3.83;;;3.60;99.90;;;;;;4966228;28;20351;-84
2022/01/06 04:32:54;;;;;;;29.23;3.88;;;5.00;99.90;;;;;;4984914;28;20080;-83
2022/01/06 04:35:20;;;;;;;23.13;3.88;;;3.70;99.90;;;;;;4990131;28;20042;-83
2022/01/06 04:37:46;;;;;;;24.65;3.38;;;4.30;99.90;;;;;;4988487;28;20038;-83
2022/01/06 04:40:12;;;;;;;26.35;3.85;;;4.80;99.90;;;;;;4987247;28;20069;-83
2022/01/06 04:42:38;;;;;;;28.13;3.95;;;3.70;99.90;;;;;;4999640;28;20112;-83
2022/01/06 04:45:04;;;;;;;32.10;4.05;;;4.60;99.90;;;;;;4960968;28;20402;-83
2022/01/06 04:47:30;;;;;;;25.92;3.45;;;2.90;99.90;;;;;;4980408;28;20458;-83
2022/01/06 04:49:55;;;;;;;31.67;3.13;;;3.30;99.90;;;;;;4988759;28;20039;-84
2022/01/06 04:52:21;;;;;;;28.23;2.88;;;3.20;99.90;;;;;;4988334;28;20361;-83
2022/01/06 04:54:46;;;;;;;26.98;2.83;;;3.00;99.90;;;;;;4976970;28;20113;-83
2022/01/06 04:57:12;;;;;;;26.05;3.30;;;2.90;99.90;;;;;;4978181;28;20401;-83
2022/01/06 04:59:38;;;;;;;22.17;2.72;;;3.60;99.90;;;;;;4976948;28;20093;-83
2022/01/06 05:02:04;;;;;;;28.00;2.88;;;2.60;99.90;;;;;;4994088;28;20038;-84
2022/01/06 05:04:30;;;;;;;30.08;2.92;;;3.20;99.90;;;;;;4986627;28;20038;-84
2022/01/06 05:06:55;;;;;;;24.60;3.00;;;2.40;99.90;;;;;;5008088;28;20055;-83
2022/01/06 05:09:21;;;;;;;25.00;3.40;;;3.10;99.90;;;;;;4968083;28;20541;-83
2022/01/06 05:11:47;;;;;;;23.50;3.05;;;3.20;99.90;;;;;;4985453;28;20092;-84
2022/01/06 05:14:12;;;;;;;25.13;3.67;;;3.10;99.90;;;;;;4983149;28;20112;-84
2022/01/06 05:16:38;;;;;;;31.92;3.15;;;2.40;99.90;;;;;;4984343;28;20035;-83
2022/01/06 05:19:04;;;;;;;18.33;2.65;;;3.50;99.90;;;;;;4964252;28;20116;-83
2022/01/06 05:21:32;;;;;;;19.70;2.53;;;2.70;99.90;;;;;;4981321;28;20039;-83
2022/01/06 05:23:58;;;;;;;33.60;2.92;;;2.20;99.90;;;;;;4989678;28;20046;-83
2022/01/06 05:26:24;;;;;;;19.50;2.33;;;2.40;99.90;;;;;;4968301;28;20043;-83
2022/01/06 05:28:50;;;;;;;22.75;2.80;;;2.80;99.90;;;;;;4985020;28;20042;-84
2022/01/06 05:31:16;;;;;;;21.40;2.90;;;1.90;99.90;;;;;;4976717;28;20127;-83
2022/01/06 05:33:41;;;;;;;12.00;2.30;;;2.70;99.90;;;;;;4979399;28;20050;-83
2022/01/06 05:36:19;;;;;;;23.33;3.55;;;2.60;99.90;;;;;;4976352;28;20057;-83
2022/01/06 05:38:45;;;;;;;15.27;2.05;;;1.60;99.90;;;;;;4982707;28;20625;-84
2022/01/06 05:41:11;;;;;;;29.95;2.42;;;1.50;99.90;;;;;;4971954;28;20120;-84
2022/01/06 05:43:39;;;;;;;26.25;2.70;;;1.60;99.90;;;;;;4967975;28;20067;-83
2022/01/06 05:46:05;;;;;;;21.88;2.30;;;1.20;99.90;;;;;;4969947;28;20146;-83
2022/01/06 05:48:31;;;;;;;24.05;3.20;;;1.70;99.90;;;;;;4969105;28;20133;-82
2022/01/06 05:50:57;;;;;;;19.65;2.80;;;1.40;99.90;;;;;;4987122;28;20054;-83
2022/01/06 05:53:23;;;;;;;20.55;2.63;;;1.40;99.90;;;;;;4986497;28;20042;-82
2022/01/06 05:55:49;;;;;;;23.15;3.15;;;1.90;99.90;;;;;;4977437;28;20030;-82
2022/01/06 05:58:14;;;;;;;24.67;2.38;;;1.30;99.90;;;;;;4960390;28;20557;-83
2022/01/06 06:00:42;;;;;;;19.02;2.58;;;1.20;99.90;;;;;;4984145;28;20109;-83
2022/01/06 06:03:08;;;;;;;20.40;2.50;;;1.20;99.90;;;;;;4976806;28;20030;-82
2022/01/06 06:05:34;;;;;;;25.00;2.85;;;1.30;99.90;;;;;;4965666;28;20576;-82
2022/01/06 06:07:59;;;;;;;15.98;2.58;;;1.10;99.90;;;;;;4965868;28;20042;-82
2022/01/06 06:10:25;;;;;;;26.92;2.28;;;1.00;99.90;;;;;;4975279;28;20089;-82
2022/01/06 06:12:52;;;;;;;23.42;2.47;;;0.90;99.90;;;;;;4987171;28;20064;-83
2022/01/06 06:15:20;;;;;;;22.83;3.50;;;0.90;99.90;;;;;;4975272;28;20410;-83
2022/01/06 06:17:46;;;;;;;20.45;2.17;;;1.00;99.90;;;;;;4973591;28;20049;-83
2022/01/06 06:20:14;;;;;;;22.92;3.00;;;0.80;99.90;;;;;;4973302;28;20043;-83
2022/01/06 06:22:39;;;;;;;23.23;2.55;;;0.80;99.90;;;;;;4971705;28;20176;-83
2022/01/06 06:25:06;;;;;;;21.83;2.50;;;0.80;99.90;;;;;;4985123;28;20427;-82
2022/01/06 06:27:31;;;;;;;23.10;3.17;;;0.80;99.90;;;;;;4970584;28;20545;-84
2022/01/06 06:29:57;;;;;;;20.90;4.05;;;0.70;99.90;;;;;;4972654;28;20050;-83
2022/01/06 06:32:23;;;;;;;16.92;3.47;;;0.70;99.90;;;;;;4977559;28;20046;-83
2022/01/06 06:34:49;;;;;;;17.20;3.40;;;0.70;99.90;;;;;;4960710;28;20414;-83
2022/01/06 06:37:14;;;;;;;18.88;3.20;;;0.60;99.90;;;;;;4978439;28;20050;-83
2022/01/06 06:39:40;;;;;;;20.10;3.97;;;0.60;99.90;;;;;;4967789;28;20039;-83
2022/01/06 06:42:06;;;;;;;27.13;4.68;;;0.60;99.90;;;;;;4978121;28;20038;-83
2022/01/06 06:44:32;;;;;;;28.13;4.63;;;0.60;99.90;;;;;;5000679;28;20125;-84
2022/01/06 06:46:57;;;;;;;23.58;5.18;;;0.60;99.90;;;;;;4977819;28;20061;-84
2022/01/06 06:49:23;;;;;;;25.63;5.47;;;0.70;99.90;;;;;;4975922;28;20475;-83
2022/01/06 06:51:49;;;;;;;36.22;6.60;;;0.80;99.90;;;;;;4977469;28;20042;-83
2022/01/06 06:54:31;;;;;;;18.38;2.78;;;1.60;99.90;;;;;;4980041;28;20053;-84
2022/01/06 06:57:00;;;;;;;30.52;6.13;;;1.70;99.90;;;;;;4967058;28;20105;-82
2022/01/06 06:59:25;;;;;;;30.75;4.47;;;2.50;99.90;;;;;;4974800;28;20427;-83
2022/01/06 07:01:51;;;;;;;27.67;4.80;;;1.20;99.90;;;;;;4978491;28;20051;-82
2022/01/06 07:04:17;;;;;;;25.05;3.83;;;1.30;99.90;;;;;;4966336;28;20042;-83
2022/01/06 07:06:48;;;;;;;22.08;4.13;;;1.40;99.90;;;;;;4964302;28;20454;-84
2022/01/06 07:09:14;;;;;;;25.27;2.83;;;2.20;99.90;;;;;;4989545;28;20385;-84
2022/01/06 07:11:39;;;;;;;23.25;2.63;;;1.00;99.90;;;;;;4970313;28;20058;-83
2022/01/06 07:14:05;;;;;;;24.42;3.10;;;0.80;99.90;;;;;;4986408;28;20077;-83
2022/01/06 07:16:31;;;;;;;33.00;3.08;;;1.10;99.90;;;;;;5000137;28;20701;-83
2022/01/06 07:18:57;;;;;;;23.88;2.65;;;2.10;99.90;;;;;;4974090;28;20065;-84
2022/01/06 07:22:10;;;;;;;32.85;3.42;;;2.10;99.90;;;;;;4975552;28;20075;-83
2022/01/06 07:24:55;;;;;;;26.58;2.85;;;1.20;99.90;;;;;;4966469;28;20084;-83
2022/01/06 07:27:30;;;;;;;26.58;3.28;;;0.90;99.90;;;;;;4964597;28;20561;-82
2022/01/06 07:29:59;;;;;;;28.13;3.30;;;1.00;99.90;;;;;;4971704;28;20037;-82
2022/01/06 07:32:24;;;;;;;26.40;3.17;;;1.00;99.90;;;;;;4985719;28;20042;-82
2022/01/06 07:34:51;;;;;;;35.00;3.72;;;1.00;99.90;;;;;;4969251;28;20402;-83
2022/01/06 07:37:17;;;;;;;34.10;4.38;;;1.60;99.90;;;;;;4965636;28;20058;-83
2022/01/06 07:39:42;;;;;;;39.50;7.03;;;1.10;99.90;;;;;;4978960;28;20057;-83
2022/01/06 07:42:14;;;;;;;47.70;5.65;;;2.10;99.90;;;;;;4983720;28;20116;-82
2022/01/06 07:45:03;;;;;;;28.50;3.78;;;2.10;99.90;;;;;;4965724;28;20042;-83
2022/01/06 07:47:42;;;;;;;29.90;3.43;;;0.90;99.90;;;;;;4964033;28;21771;-85
2022/01/06 07:50:11;;;;;;;30.83;3.47;;;0.40;99.90;;;;;;4965436;28;20037;-87
2022/01/06 07:52:56;;;;;;;23.70;3.42;;;2.40;99.90;;;;;;4981114;28;20049;-86
2022/01/06 07:55:31;;;;;;;28.92;3.45;;;1.90;99.90;;;;;;4970376;28;20133;-80
2022/01/06 07:58:13;;;;;;;26.92;3.17;;;1.30;99.90;;;;;;4979041;28;20038;-82
2022/01/06 08:00:42;;;;;;;32.55;3.33;;;2.40;99.90;;;;;;4980319;28;20471;-83
2022/01/06 08:03:08;;;;;;;34.10;3.45;;;1.50;99.90;;;;;;4977836;28;20172;-78
2022/01/06 08:05:34;;;;;;;28.73;3.67;;;1.50;99.90;;;;;;4981596;28;20491;-82
2022/01/06 08:07:59;;;;;;;24.33;3.40;;;1.70;99.90;;;;;;4984494;28;20056;-83
2022/01/06 08:10:26;;;;;;;28.08;3.53;;;1.60;99.90;;;;;;4978593;28;20049;-81
2022/01/06 08:12:54;;;;;;;35.97;3.63;;;1.60;99.90;;;;;;4962969;28;20494;-81
2022/01/06 08:15:55;;;;;;;31.10;4.13;;;1.60;99.90;;;;;;4982033;28;20046;-82
2022/01/06 08:18:33;;;;;;;25.08;3.08;;;1.80;99.90;;;;;;4895374;29;20159;-81
2022/01/06 08:21:02;;;;;;;30.50;3.58;;;1.20;99.90;;;;;;4895221;29;20063;-83
2022/01/06 08:28:04;;;;;;;39.40;4.28;;;2.40;99.90;;;;;;4893963;29;20415;-82
2022/01/06 08:30:31;;;;;;;32.22;3.70;;;2.90;99.90;;;;;;4872856;29;20116;-82
2022/01/06 08:33:19;;;;;;;25.70;2.63;;;3.20;99.90;;;;;;4877310;29;20060;-84
2022/01/06 08:36:12;;;;;;;31.13;3.50;;;3.20;99.90;;;;;;4861194;29;20182;-83
2022/01/06 08:38:54;;;;;;;31.55;3.20;;;2.60;99.90;;;;;;4862108;29;20565;-82
2022/01/06 08:41:36;;;;;;;41.47;3.72;;;2.70;99.90;;;;;;4895142;29;20049;-84
2022/01/06 08:44:17;;;;;;;17.08;3.40;;;2.20;99.90;;;;;;4847453;29;20154;-83
2022/01/06 08:46:43;;;;;;;27.95;4.07;;;2.50;99.90;;;;;;4825047;29;20034;-82
2022/01/06 08:49:11;;;;;;;33.80;3.78;;;2.80;99.90;;;;;;4813609;29;20041;-84
2022/01/06 08:59:02;;;;;;;26.65;4.10;;;1.90;99.90;;;;;;4850684;29;20405;-80
2022/01/06 09:01:37;;;;;;;28.98;3.83;;;2.00;99.90;;;;;;4864924;29;20064;-78
2022/01/06 09:04:04;;;;;;;31.27;5.05;;;2.40;99.90;;;;;;4864690;29;20074;-78
2022/01/06 09:06:29;;;;;;;34.33;3.92;;;2.10;99.90;;;;;;4870994;29;20139;-79
2022/01/06 09:08:55;;;;;;;31.13;4.43;;;2.10;99.90;;;;;;4854339;29;20198;-80
2022/01/06 09:11:21;;;;;;;29.25;3.63;;;2.10;99.90;;;;;;4849672;29;20060;-78
2022/01/06 09:13:46;;;;;;;35.63;5.20;;;2.10;99.90;;;;;;4875109;29;20044;-78
2022/01/06 09:16:13;;;;;;;35.70;5.63;;;2.10;99.90;;;;;;4945416;28;20256;-80
2022/01/06 09:18:40;;;;;;;29.85;5.75;;;2.10;99.90;;;;;;4913786;29;20412;-81
2022/01/06 09:21:06;;;;;;;31.30;5.80;;;2.00;99.90;;;;;;4940526;28;20208;-80
2022/01/06 09:23:33;;;;;;;39.42;6.82;;;2.00;99.90;;;;;;4956596;28;20054;-82
2022/01/06 09:25:59;;;;;;;34.78;4.95;;;2.00;99.90;;;;;;4972051;28;20046;-80
2022/01/06 09:28:24;;;;;;;39.47;5.35;;;2.10;99.90;;;;;;4955249;28;20046;-81
2022/01/06 09:30:51;;;;;;;35.25;3.83;;;2.10;99.90;;;;;;4958117;28;20204;-80
2022/01/06 09:33:18;;;;;;;29.10;4.00;;;2.10;99.90;;;;;;4972365;28;20057;-81
2022/01/06 09:35:45;;;;;;;34.53;5.40;;;2.20;99.90;;;;;;4970747;28;20540;-83
2022/01/06 09:38:11;;;;;;;39.08;7.18;;;2.70;99.90;;;;;;4956363;28;20396;-81
2022/01/06 09:40:43;;;;;;;50.50;9.48;;;2.30;99.90;;;;;;4951559;28;20054;-78
2022/01/06 09:43:12;;;;;;;35.78;8.10;;;2.30;99.90;;;;;;4951783;28;20483;-79
2022/01/06 09:45:39;;;;;;;39.63;10.23;;;2.30;99.90;;;;;;4954034;28;20042;-79
2022/01/06 09:48:06;;;;;;;26.60;6.20;;;2.40;99.90;;;;;;4968597;28;20104;-82
2022/01/06 09:50:32;;;;;;;38.95;5.97;;;2.40;99.90;;;;;;4959287;28;20057;-82
2022/01/06 09:52:58;;;;;;;31.23;4.50;;;2.50;99.90;;;;;;4974872;28;20042;-82
2022/01/06 09:55:23;;;;;;;30.40;4.50;;;2.60;99.90;;;;;;4959807;28;20050;-80
2022/01/06 09:57:59;;;;;;;32.10;4.60;;;2.70;99.90;;;;;;4957430;28;20045;-79
2022/01/06 10:00:26;;;;;;;38.92;4.40;;;3.00;99.90;;;;;;4970038;28;20129;-78
2022/01/06 10:03:00;;;;;;;29.40;3.95;;;2.80;99.90;;;;;;4944335;28;20046;-79
2022/01/06 10:05:45;;;;;;;23.70;3.78;;;3.00;99.90;;;;;;4973786;28;20729;-82
2022/01/06 10:08:25;;;;;;;;;;;;;;;;;;;;;
2022/01/06 11:02:06;;;;;;;22.10;2.83;;;3.90;99.90;;;;;;5708080;22;28651758;-81
2022/01/06 11:09:57;;;;;;;21.88;3.95;;;4.10;99.90;;;;;;6252612;23;20032;-79
2022/01/06 11:12:26;;;;;;;28.80;3.88;;;4.20;99.90;;;;;;6224871;23;20088;-79
2022/01/06 11:14:53;;;;;;;29.50;3.83;;;4.20;99.90;;;;;;6225031;23;20094;-79
2022/01/06 11:17:21;;;;;;;28.80;3.45;;;4.30;99.90;;;;;;6224657;23;20008;-79
2022/01/06 11:19:49;;;;;;;30.10;3.85;;;4.40;99.90;;;;;;6225261;23;20016;-80
2022/01/06 11:26:22;;;;;;;29.48;4.00;;;4.50;99.90;;;;;;6237169;23;20027;-86
2022/01/06 11:29:40;;;;;;;;;;;;;;;;;;;;;
2022/01/06 11:32:32;;;;;;;26.23;3.92;;;5.00;99.90;;;;;;6101888;23;20092;-81
2022/01/06 11:35:08;;;;;;;25.27;4.68;;;5.90;99.90;;;;;;6128643;23;20025;-85
2022/01/06 11:37:44;;;;;;;23.55;3.80;;;4.70;99.90;;;;;;6102589;23;20064;-79
2022/01/06 11:40:11;;;;;;;30.02;4.40;;;4.90;99.90;;;;;;6080398;23;20013;-79
2022/01/06 11:42:37;;;;;;;29.38;4.72;;;5.00;99.90;;;;;;6103539;23;20056;-79
2022/01/06 11:45:06;;;;;;;30.60;4.43;;;5.10;99.90;;;;;;6079173;23;20084;-79
2022/01/06 11:47:39;;;;;;;30.38;4.22;;;5.10;99.90;;;;;;6101266;23;20014;-79
2022/01/06 11:50:25;;;;;;;27.40;4.20;;;5.20;99.90;;;;;;6102984;23;20097;-80
2022/01/06 11:52:58;;;;;;;25.67;4.00;;;5.30;99.90;;;;;;6079455;23;20017;-80
2022/01/06 11:55:33;;;;;;;30.63;4.22;;;5.40;99.90;;;;;;6098876;23;20426;-78
2022/01/06 11:58:19;;;;;;;36.55;4.03;;;5.50;99.90;;;;;;6120634;23;20458;-80
2022/01/06 12:01:07;;;;;;;26.13;4.35;;;5.50;99.90;;;;;;6071467;23;20650;-79
2022/01/06 12:03:38;;;;;;;26.90;4.03;;;5.60;99.90;;;;;;6097239;23;20350;-80
2022/01/06 12:06:06;;;;;;;19.48;3.30;;;5.70;99.90;;;;;;6071060;23;20014;-79
2022/01/06 12:08:40;;;;;;;25.65;3.90;;;5.80;99.90;;;;;;6173567;23;20094;-82
2022/01/06 12:11:51;;;;;;;28.92;3.83;;;5.70;99.90;;;;;;6191938;23;20456;-84
2022/01/06 12:17:13;;;;;;;27.88;3.67;;;4.90;99.90;;;;;;6068340;23;20113;-79
2022/01/06 12:19:39;;;;;;;30.48;3.95;;;7.00;99.90;;;;;;6068943;23;20186;-79
2022/01/06 12:22:10;;;;;;;31.45;4.00;;;6.30;99.90;;;;;;6069326;23;20025;-79
2022/01/06 12:24:36;;;;;;;16.77;3.28;;;6.50;99.90;;;;;;6067995;23;20059;-79
2022/01/06 12:27:04;;;;;;;26.92;3.65;;;6.90;99.90;;;;;;6067473;23;20415;-79
2022/01/06 12:29:36;;;;;;;23.42;3.75;;;5.90;99.90;;;;;;6044626;23;20673;-79
2022/01/06 12:32:11;;;;;;;25.52;4.38;;;6.00;99.90;;;;;;6067627;23;20344;-81
2022/01/06 12:34:43;;;;;;;24.67;3.83;;;6.00;99.90;;;;;;6068738;23;20030;-82
2022/01/06 12:37:11;;;;;;;26.92;3.67;;;6.20;99.90;;;;;;6044291;23;20014;-81
2022/01/06 12:39:42;;;;;;;22.67;4.78;;;6.10;99.90;;;;;;6092550;23;20340;-81
2022/01/06 12:42:15;;;;;;;27.48;4.95;;;6.10;99.90;;;;;;6068272;23;20486;-81
2022/01/06 12:44:45;;;;;;;25.05;4.68;;;6.20;99.90;;;;;;6068045;23;20058;-81
2022/01/06 12:47:17;;;;;;;21.60;3.75;;;6.10;99.90;;;;;;6043937;23;20014;-81
2022/01/06 12:49:46;;;;;;;23.27;3.10;;;6.10;99.90;;;;;;6046186;23;20068;-81
2022/01/06 13:18:20;;;;;;;21.15;3.00;;;5.90;99.90;;;;;;6300159;22;20088;-80
2022/01/06 13:21:30;;;;;;;14.65;2.40;;;5.90;99.90;;;;;;6277459;22;20049;-80
2022/01/06 13:36:27;;;;;;;;;;;;;;;;;;;;;
2022/01/06 13:52:34;;;;;;;18.88;3.30;;;6.20;99.90;;;;;;6038714;23;20021;-78
2022/01/06 13:55:01;;;;;;;17.98;4.72;;;5.80;99.90;;;;;;6038246;23;20296;-80
2022/01/06 13:57:27;;;;;;;21.77;3.38;;;5.80;99.90;;;;;;6014028;23;20011;-79
2022/01/06 13:59:53;;;;;;;18.90;3.15;;;6.00;99.90;;;;;;6061617;23;20089;-79
2022/01/06 14:02:23;;;;;;;13.70;2.45;;;5.70;99.90;;;;;;6038238;23;20014;-79
2022/01/06 14:04:50;;;;;;;22.02;2.83;;;5.70;99.90;;;;;;6037663;23;20019;-79
2022/01/06 14:07:15;;;;;;;19.70;3.10;;;5.70;99.90;;;;;;6032411;23;20011;-78
2022/01/06 14:09:42;;;;;;;15.43;3.20;;;5.60;99.90;;;;;;6048653;23;20449;-78
2022/01/06 14:12:09;;;;;;;20.08;3.33;;;5.60;99.90;;;;;;6094908;23;20391;-77
2022/01/06 14:14:35;;;;;;;13.63;2.22;;;5.60;99.90;;;;;;6163947;22;20408;-78
2022/01/06 14:17:02;;;;;;;19.63;3.47;;;5.60;99.90;;;;;;6239651;22;20019;-81
2022/01/06 14:19:28;;;;;;;19.45;3.00;;;5.60;99.90;;;;;;6266997;22;20073;-79
2022/01/06 14:21:53;;;;;;;19.10;3.17;;;5.60;99.90;;;;;;6240530;23;20012;-79
2022/01/06 14:24:19;;;;;;;17.67;2.90;;;5.50;99.90;;;;;;6237925;23;20016;-78
2022/01/06 14:26:45;;;;;;;16.45;3.15;;;5.40;99.90;;;;;;6240760;23;20012;-78
2022/01/06 14:29:11;;;;;;;13.45;2.70;;;5.40;99.90;;;;;;6240056;23;20012;-80
2022/01/06 14:31:36;;;;;;;12.27;2.50;;;5.50;99.90;;;;;;6239530;23;20016;-80
2022/01/06 14:34:02;;;;;;;17.30;3.42;;;5.40;99.90;;;;;;6242216;23;20020;-80
2022/01/06 14:36:28;;;;;;;14.98;2.65;;;5.40;99.90;;;;;;6259981;23;20349;-79
2022/01/06 14:38:53;;;;;;;19.65;2.83;;;5.20;99.90;;;;;;6265925;23;20016;-79
2022/01/06 14:41:20;;;;;;;18.85;2.75;;;5.10;99.90;;;;;;6265804;23;20062;-80
2022/01/06 14:43:47;;;;;;;18.85;3.65;;;5.10;99.90;;;;;;6240243;23;20039;-81
2022/01/06 14:46:22;;;;;;;17.55;3.25;;;5.00;99.90;;;;;;6239255;23;20082;-81
2022/01/06 14:48:48;;;;;;;;;;;4.90;99.90;;;;;;6243030;23;20112;-83
2022/01/06 14:51:23;;;;;;;16.73;2.22;;;4.20;99.90;;;;;;6240622;23;20098;-82
2022/01/06 14:54:12;;;;;;;19.15;2.55;;;4.80;99.90;;;;;;6217042;23;20726;-82
2022/01/06 14:56:43;;;;;;;20.02;2.85;;;4.20;99.90;;;;;;6241654;22;20111;-82
2022/01/06 14:59:09;;;;;;;19.05;2.92;;;4.60;99.90;;;;;;6216030;23;20016;-79
2022/01/06 15:01:34;;;;;;;12.18;2.83;;;4.50;99.90;;;;;;6238431;23;20127;-79
2022/01/06 15:04:00;;;;;;;20.75;3.92;;;4.60;99.90;;;;;;6242080;23;20048;-77
2022/01/06 15:06:26;;;;;;;15.65;2.47;;;4.50;99.90;;;;;;6239245;23;20013;-78
2022/01/06 15:08:51;;;;;;;20.75;2.30;;;4.90;99.90;;;;;;6239083;23;20016;-77
2022/01/06 15:11:17;;;;;;;15.68;2.42;;;4.50;99.90;;;;;;6238450;23;20262;-77
2022/01/06 15:13:43;;;;;;;20.20;2.88;;;4.40;99.90;;;;;;6239793;23;20027;-79
2022/01/06 15:16:08;;;;;;;13.30;2.72;;;4.50;99.90;;;;;;6239037;23;20093;-80